createdAt,value
2023-02-18T00:00:11.328Z,32.6
2023-02-18T00:05:48.977Z,32.6
2023-02-18T00:11:26.821Z,32.5
2023-02-18T00:16:48.961Z,32.5
2023-02-18T00:21:54.504Z,32.4
2023-02-18T00:27:32.072Z,32.4
2023-02-18T00:33:09.226Z,32.4
2023-02-18T00:38:29.662Z,32.4
2023-02-18T00:44:07.612Z,32.3
2023-02-18T00:49:45.092Z,32.3
2023-02-18T00:55:22.080Z,32.3
2023-02-18T01:00:58.910Z,32.3
2023-02-18T01:06:36.593Z,32.2
2023-02-18T01:12:14.098Z,32.1
2023-02-18T01:17:52.022Z,32.1
2023-02-18T01:23:28.823Z,32.1
2023-02-18T01:29:05.381Z,32.1
2023-02-18T01:34:43.578Z,32
2023-02-18T01:40:21.402Z,32
2023-02-18T01:45:58.099Z,31.9
2023-02-18T01:51:19.866Z,31.9
2023-02-18T01:56:58.506Z,31.9
2023-02-18T02:02:36.161Z,31.9
2023-02-18T02:08:13.113Z,31.8
2023-02-18T02:13:49.662Z,31.8
2023-02-18T02:19:26.234Z,31.8
2023-02-18T02:25:03.259Z,31.8
2023-02-18T02:30:41.126Z,31.7
2023-02-18T02:36:17.768Z,31.7
2023-02-18T02:41:56.068Z,31.6
2023-02-18T02:47:33.902Z,31.6
2023-02-18T02:53:11.194Z,31.6
2023-02-18T02:58:48.924Z,31.6
2023-02-18T03:04:26.361Z,31.6
2023-02-18T03:10:03.983Z,31.5
2023-02-18T03:15:41.579Z,31.4
2023-02-18T03:21:19.400Z,31.4
2023-02-18T03:26:57.190Z,31.4
2023-02-18T03:32:35.121Z,31.4
2023-02-18T03:38:12.810Z,31.4
2023-02-18T03:43:49.132Z,31.3
2023-02-18T03:49:10.368Z,31.3
2023-02-18T03:54:32.251Z,31.3
2023-02-18T04:00:09.537Z,31.3
2023-02-18T04:05:47.053Z,31.3
2023-02-18T04:11:24.023Z,31.2
2023-02-18T04:17:01.030Z,31.2
2023-02-18T04:22:38.365Z,31.2
2023-02-18T04:28:16.750Z,31.1
2023-02-18T04:33:41.871Z,31.1
2023-02-18T04:39:19.950Z,31.1
2023-02-18T04:44:57.702Z,31.1
2023-02-18T04:50:34.966Z,31.1
2023-02-18T04:56:11.344Z,31
2023-02-18T05:01:48.333Z,30.9
2023-02-18T05:12:31.437Z,30.9
2023-02-18T05:17:53.783Z,30.9
2023-02-18T05:23:17.864Z,30.9
2023-02-18T05:28:54.495Z,30.9
2023-02-18T05:34:32.432Z,30.9
2023-02-18T05:40:10.788Z,30.8
2023-02-18T05:45:17.080Z,30.8
2023-02-18T05:50:55.831Z,30.8
2023-02-18T05:56:32.138Z,30.8
2023-02-18T06:02:08.730Z,30.8
2023-02-18T06:07:32.192Z,30.7
2023-02-18T06:12:54.255Z,30.7
2023-02-18T06:18:32.086Z,30.7
2023-02-18T06:24:09.179Z,30.6
2023-02-18T06:29:47.054Z,30.6
2023-02-18T06:35:25.615Z,30.6
2023-02-18T06:41:03.854Z,30.6
2023-02-18T06:46:41.386Z,30.6
2023-02-18T06:52:20.996Z,30.5
2023-02-18T06:57:27.091Z,30.5
2023-02-18T07:03:04.808Z,30.4
2023-02-18T07:08:42.997Z,30.4
2023-02-18T07:14:20.626Z,30.4
2023-02-18T07:19:57.926Z,30.4
2023-02-18T07:25:34.834Z,30.4
2023-02-18T07:30:56.387Z,30.4
2023-02-18T07:36:34.022Z,30.3
2023-02-18T07:42:10.921Z,30.3
2023-02-18T07:47:48.707Z,30.3
2023-02-18T07:53:26.580Z,30.3
2023-02-18T07:59:04.827Z,30.3
2023-02-18T08:04:41.706Z,30.3
2023-02-18T08:10:18.902Z,30.3
2023-02-18T08:16:06.253Z,30.2
2023-02-18T08:21:43.525Z,30.2
2023-02-18T08:27:33.501Z,30.2
2023-02-18T08:33:11.543Z,30.2
2023-02-18T08:38:42.421Z,30.1
2023-02-18T08:44:19.122Z,30.1
2023-02-18T08:51:26.580Z,30.1
2023-02-18T08:57:04.403Z,30.1
2023-02-18T09:02:28.489Z,30.1
2023-02-18T09:07:50.828Z,39.9
2023-02-18T09:13:27.048Z,38.8
2023-02-18T09:19:04.047Z,36.5
2023-02-18T09:24:41.411Z,35.1
2023-02-18T09:30:19.194Z,41.1
2023-02-18T09:36:15.159Z,41.8
2023-02-18T09:41:54.608Z,46.4
2023-02-18T09:47:16.422Z,47.1
2023-02-18T09:52:56.404Z,48.1
2023-02-18T09:58:35.957Z,48.4
2023-02-18T10:04:15.605Z,48.3
2023-02-18T10:09:53.436Z,50.1
2023-02-18T10:15:15.347Z,51.4
2023-02-18T10:20:57.767Z,52.4
2023-02-18T10:26:34.817Z,53.6
2023-02-18T10:31:57.302Z,54.1
2023-02-18T10:37:34.334Z,54.2
2023-02-18T10:42:55.136Z,55.2
2023-02-18T10:48:31.494Z,55.8
2023-02-18T10:54:09.125Z,56.7
2023-02-18T10:59:45.914Z,56.9
2023-02-18T11:05:24.331Z,55.4
2023-02-18T11:10:46.198Z,55.9
2023-02-18T11:16:20.816Z,55.8
2023-02-18T11:21:42.566Z,55.4
2023-02-18T11:26:48.979Z,55.3
2023-02-18T11:32:12.026Z,55.9
2023-02-18T11:37:49.141Z,56.2
2023-02-18T11:43:11.157Z,56.7
2023-02-18T11:48:47.541Z,56.9
2023-02-18T11:54:24.285Z,57.3
2023-02-18T11:59:46.902Z,57.4
2023-02-18T12:04:53.627Z,57.4
2023-02-18T12:10:30.970Z,57.4
2023-02-18T12:16:09.629Z,57.7
2023-02-18T12:21:49.189Z,57.4
2023-02-18T12:27:26.858Z,56.4
2023-02-18T12:32:49.463Z,56.8
2023-02-18T12:38:26.857Z,56.4
2023-02-18T12:44:05.868Z,56.4
2023-02-18T12:49:43.387Z,56.1
2023-02-18T12:55:20.230Z,56.2
2023-02-18T13:00:26.428Z,56.6
2023-02-18T13:05:48.951Z,56.7
2023-02-18T13:11:10.773Z,56.6
2023-02-18T13:16:32.106Z,56.6
2023-02-18T13:22:11.538Z,56.4
2023-02-18T13:27:35.476Z,55.8
2023-02-18T13:33:14.154Z,55.1
2023-02-18T13:38:51.565Z,54.3
2023-02-18T13:44:28.634Z,51.1
2023-02-18T13:50:05.416Z,47.6
2023-02-18T13:55:42.636Z,45.4
2023-02-18T14:01:20.350Z,44
2023-02-18T14:06:58.644Z,43.1
2023-02-18T14:12:35.613Z,42.4
2023-02-18T14:18:12.825Z,42.2
2023-02-18T14:23:50.040Z,41.9
2023-02-18T14:29:27.869Z,41.5
2023-02-18T14:34:55.679Z,41.2
2023-02-18T14:40:34.322Z,40.8
2023-02-18T14:45:56.200Z,40.6
2023-02-18T14:51:33.033Z,40.3
2023-02-18T14:57:10.116Z,40
2023-02-18T15:02:48.059Z,39.8
2023-02-18T15:08:26.039Z,39.6
2023-02-18T15:13:49.132Z,39.3
2023-02-18T15:19:29.838Z,39.1
2023-02-18T15:25:08.547Z,38.9
2023-02-18T15:30:45.872Z,38.7
2023-02-18T15:36:09.597Z,38.4
2023-02-18T15:41:46.202Z,38.3
2023-02-18T15:47:25.039Z,38
2023-02-18T15:52:56.799Z,37.8
2023-02-18T15:58:34.942Z,37.7
2023-02-18T16:04:13.487Z,37.4
2023-02-18T16:09:37.105Z,37.3
2023-02-18T16:14:44.546Z,37.2
2023-02-18T16:20:03.761Z,37
2023-02-18T16:25:26.698Z,36.9
2023-02-18T16:31:04.771Z,36.8
2023-02-18T16:36:39.828Z,36.6
2023-02-18T16:42:18.788Z,36.5
2023-02-18T16:47:41.132Z,36.4
2023-02-18T16:53:20.198Z,36.3
2023-02-18T16:58:58.282Z,36.1
2023-02-18T17:04:38.478Z,36
2023-02-18T17:10:14.158Z,35.9
2023-02-18T17:15:52.371Z,35.8
2023-02-18T17:21:30.071Z,35
2023-02-18T17:27:10.113Z,34.6
2023-02-18T17:32:49.119Z,34.4
2023-02-18T17:38:27.247Z,34.3
2023-02-18T17:44:06.431Z,34.2
2023-02-18T17:49:32.923Z,34.1
2023-02-18T17:55:10.309Z,34.1
2023-02-18T18:00:16.707Z,34
2023-02-18T18:05:39.269Z,33.9
2023-02-18T18:11:16.224Z,33.9
2023-02-18T18:16:53.570Z,33.8
2023-02-18T18:22:31.634Z,33.8
2023-02-18T18:28:09.310Z,33.7
2023-02-18T18:33:45.695Z,33.6
2023-02-18T18:39:22.701Z,33.6
2023-02-18T18:44:45.042Z,33.6
2023-02-18T18:50:07.810Z,33.5
2023-02-18T18:55:46.618Z,33.5
2023-02-18T19:01:27.755Z,33.4
2023-02-18T19:07:04.556Z,33.4
2023-02-18T19:12:42.584Z,33.3
2023-02-18T19:18:20.562Z,33.3
2023-02-18T19:23:57.200Z,33.3
2023-02-18T19:29:35.582Z,33.2
2023-02-18T19:35:13.371Z,33.2
2023-02-18T19:40:49.424Z,33.1
2023-02-18T19:46:27.477Z,33.1
2023-02-18T19:52:04.643Z,33.1
2023-02-18T19:57:42.117Z,33
2023-02-18T20:03:20.447Z,32.9
2023-02-18T20:08:42.156Z,32.9
2023-02-18T20:14:19.621Z,32.9
2023-02-18T20:19:57.553Z,32.8
2023-02-18T20:26:07.556Z,32.8
2023-02-18T20:31:40.341Z,32.8
2023-02-18T20:37:18.921Z,32.8
2023-02-18T20:43:21.325Z,32.7
2023-02-18T20:48:43.481Z,32.7
2023-02-18T20:54:21.422Z,32.6
2023-02-18T20:59:58.788Z,32.6
2023-02-18T21:05:38.074Z,32.6
2023-02-18T21:11:16.005Z,32.5
2023-02-18T21:16:53.321Z,32.5
2023-02-18T21:22:31.643Z,32.4
2023-02-18T21:27:54.610Z,32.4
2023-02-18T21:33:32.688Z,32.4
2023-02-18T21:39:09.119Z,32.3
2023-02-18T21:44:41.602Z,32.3
2023-02-18T21:50:20.615Z,32.3
2023-02-18T21:56:04.262Z,32.3
2023-02-18T22:02:00.683Z,32.2
2023-02-18T22:07:38.110Z,32.2
2023-02-18T22:12:59.138Z,32.1
2023-02-18T22:18:37.680Z,32.1
2023-02-18T22:24:15.827Z,32.1
2023-02-18T22:29:52.635Z,32.1
2023-02-18T22:35:33.249Z,32.1
2023-02-18T22:41:11.911Z,32
2023-02-18T22:46:48.726Z,31.9
2023-02-18T22:52:26.558Z,31.9
2023-02-18T22:58:03.500Z,31.9
2023-02-18T23:03:39.735Z,31.9
2023-02-18T23:09:17.399Z,31.9
2023-02-18T23:14:39.918Z,31.9
2023-02-18T23:20:02.022Z,31.8
2023-02-18T23:25:39.451Z,31.8
2023-02-18T23:31:17.256Z,31.8
2023-02-18T23:36:54.962Z,31.8
2023-02-18T23:42:16.991Z,31.7
2023-02-18T23:47:54.345Z,31.7
2023-02-18T23:53:31.173Z,31.7
2023-02-18T23:59:08.771Z,31.6
